Houston, TX (77001)

8:50 AM CDT on September 05, 2015 (GMT -0500)
Port of Houston | | Change Station
CLOSE
Current Station
Personal Weather Station
Location: Houston, TX
Elevation: 30 ft
Nearby Weather Stations

Elev 30 ft 29.72 °N, 95.27 °W | Updated 12 minutes ago

Partly Cloudy
Partly Cloudy
83.0 °F
Feels Like 94 °F
N
0.0
Wind Variable Wind from NW
Gusts 0.0 mph

Today
High -- | Low -- °F
--% Chance of Precip.
Yesterday
High -- | Low -- °F
Precip. -- in
7:00 AM 7:38 PM
Waning Gibbous, 48% visible
Pressure 30.02 in
Visibility 10.0 miles
Clouds Few 1200 ft
Scattered Clouds 25000 ft
Heat Index 94 °F
Dew Point 80 °F
Humidity 89%
Rainfall 0.00 in
Snow Depth Not available.
UV 0 out of 12
Pollen 6.30 out of 12
Air Quality Not available.
Flu Activity Not available.
METAR KHOU 051253Z 00000KT 10SM FEW012 SCT250 26/24 A3000 RMK AO2 SLP164 T02610244
Pressure 30.02 in
Visibility 10.0 miles
Clouds Few 1200 ft
Scattered Clouds 25000 ft
Heat Index 94 °F
Dew Point 80 °F
Humidity 89%
Rainfall 0.00 in
Snow Depth Not available.
UV 0 out of 12
Pollen 6.30 out of 12
Air Quality Not available.
Flu Activity Not available.
METAR KHOU 051253Z 00000KT 10SM FEW012 SCT250 26/24 A3000 RMK AO2 SLP164 T02610244

10-Day Weather Forecast

×

Almanac

Astronomy

Sep. 05, 2015 Rise Set
Actual Time
Civil Twilight
Nautical Twilight
Astronomical Twilight
Moon
Length of Visible Light
Length of Day
Tomorrow will be .
, % of the Moon is Illuminated

Today's Extremes

State Highs State Lows

Community

WunderPhotos

Upload Photos

1,852,464 photos uploaded!

WunderBlogs® & News

Nearby

Air Quality

  Air Quality AQ Index Pollutant
Not available.

Snow Depth

Station Depth Elevation

Earthquake Activity

City Distance Mag. Time & Date
Minimum magnitude displayed is 2.5.

Coastal Water Temperatures

Place Temperature

Stations

Nearby Weather Stations

Station Location Temp. Windchill Dew Point Humidity Wind Precip. Elev Updated Type